createdAt,value
2022-10-25T00:10:24.837Z,87.1
2022-10-25T00:22:21.193Z,87.4
2022-10-25T00:34:21.185Z,87.6
2022-10-25T00:46:21.202Z,87.6
2022-10-25T00:58:21.204Z,87.2
2022-10-25T01:10:21.244Z,87.3
2022-10-25T01:22:21.193Z,87.3
2022-10-25T01:34:21.228Z,87.5
2022-10-25T01:46:21.211Z,88.1
2022-10-25T01:58:21.262Z,88.7
2022-10-25T02:10:21.179Z,89.2
2022-10-25T02:22:21.309Z,89.7
2022-10-25T02:34:21.253Z,90.0
2022-10-25T02:46:21.232Z,90.5
2022-10-25T02:58:22.068Z,90.7
2022-10-25T03:10:21.177Z,90.8
2022-10-25T03:22:21.186Z,91.0
2022-10-25T03:34:21.239Z,91.1
2022-10-25T03:46:21.299Z,91.1
2022-10-25T03:58:21.272Z,91.3
2022-10-25T04:10:21.183Z,91.4
2022-10-25T04:22:21.188Z,91.7
2022-10-25T04:34:21.302Z,91.9
2022-10-25T04:46:21.275Z,92.2
2022-10-25T04:58:21.267Z,92.4
2022-10-25T05:10:21.176Z,92.4
2022-10-25T05:22:21.186Z,92.5
2022-10-25T05:34:21.211Z,92.7
2022-10-25T05:46:21.237Z,92.8
2022-10-25T05:58:21.291Z,92.6
2022-10-25T06:10:21.299Z,92.2
2022-10-25T06:22:21.186Z,91.3
2022-10-25T06:34:21.187Z,91.4
2022-10-25T06:46:21.282Z,91.2
2022-10-25T06:58:21.207Z,88.4
2022-10-25T07:10:21.291Z,87.4
2022-10-25T07:22:21.188Z,87.3
2022-10-25T07:34:21.276Z,87.9
2022-10-25T07:46:21.280Z,88.2
2022-10-25T07:58:21.291Z,88.1
2022-10-25T08:10:21.376Z,87.1
2022-10-25T08:22:21.321Z,84.8
2022-10-25T08:34:21.300Z,85.0
2022-10-25T08:46:21.255Z,85.1
2022-10-25T08:58:21.190Z,83.3
2022-10-25T09:10:21.298Z,81.8
2022-10-25T09:22:21.186Z,80.8
2022-10-25T09:34:21.192Z,79.8
2022-10-25T09:46:21.294Z,79.3
2022-10-25T09:58:21.260Z,79.5
2022-10-25T10:10:21.239Z,80.1
2022-10-25T10:22:21.202Z,80.6
2022-10-25T10:34:21.199Z,80.3
2022-10-25T10:46:21.249Z,77.1
2022-10-25T10:58:21.295Z,76.7
2022-10-25T11:10:21.277Z,77.2
2022-10-25T11:22:21.180Z,75.7
2022-10-25T11:34:21.203Z,75.0
2022-10-25T11:46:21.254Z,72.0
2022-10-25T11:58:21.193Z,73.4
2022-10-25T12:10:21.182Z,73.9
2022-10-25T12:22:21.188Z,70.3
2022-10-25T12:34:21.361Z,70.6
2022-10-25T12:46:21.179Z,72.5
2022-10-25T12:58:21.181Z,73.0
2022-10-25T13:10:21.259Z,72.1
2022-10-25T13:22:21.298Z,69.0
2022-10-25T13:34:21.191Z,68.0
2022-10-25T13:46:21.178Z,69.5
2022-10-25T13:58:21.188Z,68.0
2022-10-25T14:10:21.345Z,66.8
2022-10-25T14:22:21.187Z,67.7
2022-10-25T14:34:21.191Z,68.6
2022-10-25T14:46:21.183Z,70.5
2022-10-25T14:58:21.191Z,70.4
2022-10-25T15:10:22.071Z,72.4
2022-10-25T15:22:21.190Z,72.6
2022-10-25T15:34:21.193Z,72.7
2022-10-25T15:46:21.183Z,74.3
2022-10-25T15:58:21.187Z,75.7
2022-10-25T16:10:21.181Z,77.2
2022-10-25T16:22:21.291Z,77.5
2022-10-25T16:34:21.304Z,78.0
2022-10-25T16:46:21.185Z,79.4
2022-10-25T16:58:21.179Z,79.8
2022-10-25T17:10:21.273Z,80.8
2022-10-25T17:22:21.305Z,80.9
2022-10-25T17:34:21.281Z,81.3
2022-10-25T17:46:21.185Z,82.9
2022-10-25T17:58:21.188Z,83.5
2022-10-25T18:10:21.281Z,84.3
2022-10-25T18:22:21.295Z,85.0
2022-10-25T18:34:21.293Z,85.2
2022-10-25T18:46:21.190Z,85.4
2022-10-25T18:58:21.298Z,85.3
2022-10-25T19:10:21.279Z,85.4
2022-10-25T19:22:21.277Z,85.1
2022-10-25T19:34:21.258Z,86.5
2022-10-25T19:46:21.185Z,84.5
2022-10-25T19:58:21.287Z,84.4
2022-10-25T20:10:21.184Z,85.9
2022-10-25T20:22:21.288Z,88.7
2022-10-25T20:34:21.275Z,89.5
2022-10-25T20:46:21.259Z,89.9
2022-10-25T20:58:21.268Z,88.6
2022-10-25T21:10:21.276Z,87.9
2022-10-25T21:22:21.262Z,87.3
2022-10-25T21:34:21.290Z,88.3
2022-10-25T21:46:21.192Z,88.2
2022-10-25T21:58:21.185Z,88.8
2022-10-25T22:10:21.279Z,88.5
2022-10-25T22:22:21.541Z,86.4
2022-10-25T22:34:21.298Z,85.2
2022-10-25T22:46:21.183Z,84.8
2022-10-25T22:58:21.175Z,84.6
2022-10-25T23:10:21.258Z,84.8
2022-10-25T23:22:21.295Z,84.6
2022-10-25T23:34:21.333Z,84.8
2022-10-25T23:46:21.197Z,85.2
2022-10-25T23:58:21.269Z,85.5
